createdAt,value
2019-04-30T00:01:41.836Z,15.50
2019-04-30T00:06:45.913Z,14.03
2019-04-30T00:11:50.577Z,14.70
2019-04-30T00:16:55.349Z,13.90
2019-04-30T00:22:00.586Z,12.88
2019-04-30T00:27:05.126Z,12.93
2019-04-30T00:32:09.091Z,13.35
2019-04-30T00:37:14.132Z,13.28
2019-04-30T00:42:24.269Z,13.30
2019-04-30T00:47:25.707Z,12.15
2019-04-30T00:52:33.785Z,12.82
2019-04-30T00:57:37.328Z,12.40
2019-04-30T01:03:05.876Z,13.38
2019-04-30T01:08:11.071Z,12.82
2019-04-30T01:13:14.961Z,12.18
2019-04-30T01:18:19.283Z,12.35
2019-04-30T01:23:23.339Z,12.07
2019-04-30T01:28:28.484Z,12.20
2019-04-30T01:33:34.441Z,12.43
2019-04-30T01:38:40.048Z,17.82
2019-04-30T01:43:43.477Z,13.95
2019-04-30T01:48:48.639Z,11.12
2019-04-30T01:53:52.901Z,13.03
2019-04-30T01:58:59.515Z,11.90
2019-04-30T02:04:03.538Z,13.20
2019-04-30T02:09:09.084Z,12.75
2019-04-30T02:14:13.084Z,12.30
2019-04-30T02:19:18.735Z,13.10
2019-04-30T02:24:22.509Z,12.18
2019-04-30T02:29:26.383Z,12.40
2019-04-30T02:34:31.834Z,12.65
2019-04-30T02:39:35.712Z,11.88
2019-04-30T02:44:42.093Z,12.25
2019-04-30T02:49:49.997Z,11.45
2019-04-30T02:54:53.897Z,11.90
2019-04-30T03:00:05.414Z,12.37
2019-04-30T03:05:12.951Z,10.85
2019-04-30T03:10:15.034Z,11.22
2019-04-30T03:15:22.362Z,10.38
2019-04-30T03:20:32.685Z,10.35
2019-04-30T03:25:31.690Z,9.88
2019-04-30T03:30:35.614Z,11.33
2019-04-30T03:35:46.837Z,9.93
2019-04-30T03:40:45.098Z,8.78
2019-04-30T03:45:49.961Z,8.60
2019-04-30T03:50:56.955Z,9.03
2019-04-30T03:56:01.453Z,9.50
2019-04-30T04:01:23.090Z,8.53
2019-04-30T04:06:34.367Z,9.60
2019-04-30T04:11:39.858Z,9.38
2019-04-30T04:16:43.753Z,8.83
2019-04-30T04:21:47.562Z,8.70
2019-04-30T04:26:51.447Z,7.95
2019-04-30T04:31:55.330Z,8.58
2019-04-30T04:37:00.036Z,7.67
2019-04-30T04:42:04.091Z,7.80
2019-04-30T04:47:09.925Z,8.60
2019-04-30T04:52:13.477Z,8.53
2019-04-30T04:57:19.267Z,8.18
2019-04-30T05:02:35.997Z,8.00
2019-04-30T05:07:40.119Z,7.72
2019-04-30T05:12:44.058Z,8.30
2019-04-30T05:17:49.487Z,7.83
2019-04-30T05:22:53.503Z,7.47
2019-04-30T05:27:58.721Z,8.45
2019-04-30T05:33:02.652Z,8.65
2019-04-30T05:38:06.538Z,8.35
2019-04-30T05:43:11.377Z,8.45
2019-04-30T05:48:15.437Z,8.48
2019-04-30T05:53:19.372Z,8.73
2019-04-30T05:58:23.304Z,8.70
2019-04-30T06:03:30.767Z,8.85
2019-04-30T06:08:34.382Z,9.10
2019-04-30T06:13:49.235Z,8.38
2019-04-30T06:18:53.198Z,8.33
2019-04-30T06:23:59.084Z,9.03
2019-04-30T06:29:03.112Z,8.75
2019-04-30T06:34:08.559Z,9.08
2019-04-30T06:39:12.577Z,9.48
2019-04-30T06:44:16.789Z,8.80
2019-04-30T06:49:21.179Z,9.28
2019-04-30T06:54:25.039Z,8.55
2019-04-30T06:59:29.950Z,8.90
2019-04-30T07:04:33.928Z,9.03
2019-04-30T07:09:56.774Z,9.05
2019-04-30T07:14:59.077Z,9.18
2019-04-30T07:20:02.844Z,9.88
2019-04-30T07:25:09.432Z,9.43
2019-04-30T07:30:13.120Z,9.43
2019-04-30T07:35:19.327Z,10.28
2019-04-30T07:40:22.645Z,10.45
2019-04-30T07:45:26.568Z,9.80
2019-04-30T07:50:31.602Z,8.58
2019-04-30T07:55:36.121Z,9.25
2019-04-30T08:00:40.433Z,10.30
2019-04-30T08:05:46.354Z,10.70
2019-04-30T08:10:50.994Z,9.95
2019-04-30T08:15:55.054Z,10.23
2019-04-30T08:21:01.023Z,9.80
2019-04-30T08:26:04.650Z,9.73
2019-04-30T08:31:09.072Z,10.20
2019-04-30T08:36:13.303Z,11.15
2019-04-30T08:41:19.251Z,10.40
2019-04-30T08:46:23.117Z,10.63
2019-04-30T08:51:28.827Z,12.03
2019-04-30T08:56:32.610Z,10.58
2019-04-30T09:01:38.587Z,10.88
2019-04-30T09:06:42.122Z,11.12
2019-04-30T09:11:53.106Z,11.73
2019-04-30T09:16:51.723Z,11.83
2019-04-30T09:21:55.653Z,11.45
2019-04-30T09:26:59.584Z,11.97
2019-04-30T09:32:03.518Z,12.30
2019-04-30T09:37:08.707Z,12.03
2019-04-30T09:42:12.956Z,11.35
2019-04-30T09:47:16.880Z,11.90
2019-04-30T09:52:21.043Z,11.57
2019-04-30T09:57:25.459Z,11.63
2019-04-30T10:02:29.587Z,11.57
2019-04-30T10:07:33.514Z,12.40
2019-04-30T10:12:39.158Z,11.75
2019-04-30T10:17:44.949Z,11.45
2019-04-30T10:22:49.510Z,11.05
2019-04-30T10:27:53.598Z,11.48
2019-04-30T10:32:59.556Z,11.53
2019-04-30T10:38:03.811Z,11.15
2019-04-30T10:43:08.855Z,12.03
2019-04-30T10:48:13.917Z,12.82
2019-04-30T10:53:17.968Z,12.82
2019-04-30T10:58:22.199Z,11.00
2019-04-30T11:03:26.335Z,12.33
2019-04-30T11:08:30.363Z,12.10
2019-04-30T11:13:34.394Z,11.75
2019-04-30T11:18:38.532Z,12.03
2019-04-30T11:23:42.743Z,12.53
2019-04-30T11:28:47.059Z,12.10
2019-04-30T11:33:51.814Z,12.55
2019-04-30T11:38:55.766Z,12.28
2019-04-30T11:43:59.692Z,11.63
2019-04-30T11:49:03.618Z,11.35
2019-04-30T11:54:08.926Z,11.88
2019-04-30T11:59:13.293Z,11.97
2019-04-30T12:04:19.076Z,13.40
2019-04-30T12:09:24.857Z,11.48
2019-04-30T12:14:42.200Z,11.03
2019-04-30T12:19:48.712Z,11.48
2019-04-30T12:25:02.223Z,9.88
2019-04-30T12:29:59.423Z,10.75
2019-04-30T12:35:03.992Z,10.18
2019-04-30T12:40:13.906Z,9.48
2019-04-30T12:45:14.915Z,9.88
2019-04-30T12:50:23.959Z,10.45
2019-04-30T12:55:35.346Z,9.65
2019-04-30T13:00:39.276Z,9.78
2019-04-30T13:05:43.498Z,9.00
2019-04-30T13:10:48.040Z,8.30
2019-04-30T13:15:52.314Z,8.18
2019-04-30T13:20:56.269Z,8.48
2019-04-30T13:26:01.057Z,7.55
2019-04-30T13:31:05.176Z,7.47
2019-04-30T13:36:09.104Z,7.80
2019-04-30T13:41:14.652Z,8.45
2019-04-30T13:46:18.614Z,7.35
2019-04-30T13:51:22.507Z,8.03
2019-04-30T13:56:28.542Z,7.90
2019-04-30T14:01:32.313Z,8.20
2019-04-30T14:06:55.903Z,6.97
2019-04-30T14:12:00.136Z,8.23
2019-04-30T14:17:04.264Z,8.15
2019-04-30T14:22:09.076Z,8.63
2019-04-30T14:27:13.246Z,8.20
2019-04-30T14:32:18.665Z,7.03
2019-04-30T14:37:22.943Z,8.85
2019-04-30T14:42:27.564Z,7.85
2019-04-30T14:47:37.995Z,7.97
2019-04-30T14:52:43.835Z,7.80
2019-04-30T14:57:52.168Z,7.72
2019-04-30T15:02:59.614Z,8.18
2019-04-30T15:08:03.502Z,7.42
2019-04-30T15:13:09.585Z,7.12
2019-04-30T15:18:13.303Z,7.78
2019-04-30T15:23:21.650Z,7.60
2019-04-30T15:28:32.171Z,7.58
2019-04-30T15:33:36.039Z,7.95
2019-04-30T15:38:53.484Z,6.78
2019-04-30T15:43:57.408Z,6.87
2019-04-30T15:49:01.644Z,6.70
2019-04-30T15:54:06.576Z,6.58
2019-04-30T15:59:28.988Z,7.28
2019-04-30T16:04:35.737Z,6.47
2019-04-30T16:09:58.577Z,6.80
2019-04-30T16:15:02.546Z,7.10
2019-04-30T16:20:07.597Z,6.75
2019-04-30T16:25:11.711Z,6.65
2019-04-30T16:30:16.245Z,6.58
2019-04-30T16:35:20.306Z,6.12
2019-04-30T16:40:25.685Z,6.47
2019-04-30T16:45:29.691Z,6.00
2019-04-30T16:50:33.666Z,6.17
2019-04-30T16:55:37.649Z,5.85
2019-04-30T17:00:42.087Z,4.90
2019-04-30T17:05:59.635Z,5.35
2019-04-30T17:11:10.758Z,5.78
2019-04-30T17:16:19.560Z,5.42
2019-04-30T17:21:23.679Z,4.85
2019-04-30T17:26:27.641Z,6.65
2019-04-30T17:31:31.575Z,13.32
2019-04-30T17:36:35.481Z,19.85
2019-04-30T17:41:39.427Z,14.40
2019-04-30T17:46:43.400Z,5.85
2019-04-30T17:51:48.975Z,5.35
2019-04-30T17:56:52.810Z,10.03
2019-04-30T18:01:59.690Z,10.60
2019-04-30T18:07:03.882Z,14.35
2019-04-30T18:12:09.380Z,17.37
2019-04-30T18:17:13.453Z,12.47
2019-04-30T18:22:19.498Z,12.53
2019-04-30T18:27:29.459Z,22.65
2019-04-30T18:32:33.498Z,42.88
2019-04-30T18:37:38.722Z,47.70
2019-04-30T18:42:42.686Z,33.48
2019-04-30T18:47:46.585Z,16.93
2019-04-30T18:52:52.187Z,11.65
2019-04-30T18:57:57.124Z,10.08
2019-04-30T19:03:01.635Z,12.58
2019-04-30T19:08:23.368Z,13.55
2019-04-30T19:13:31.866Z,12.63
2019-04-30T19:18:49.030Z,14.00
2019-04-30T19:23:52.923Z,10.45
2019-04-30T19:28:56.800Z,6.72
2019-04-30T19:34:00.679Z,8.00
2019-04-30T19:39:08.626Z,4.75
2019-04-30T19:44:12.703Z,4.40
2019-04-30T19:49:16.597Z,4.40
2019-04-30T19:54:20.480Z,5.47
2019-04-30T19:59:24.356Z,5.00
2019-04-30T20:04:34.141Z,4.87
2019-04-30T20:09:33.890Z,5.42
2019-04-30T20:14:41.607Z,5.50
2019-04-30T20:19:45.737Z,5.53
2019-04-30T20:24:49.669Z,6.15
2019-04-30T20:29:53.603Z,7.62
2019-04-30T20:34:59.595Z,6.00
2019-04-30T20:40:08.707Z,5.70
2019-04-30T20:45:12.887Z,4.85
2019-04-30T20:50:16.780Z,5.12
2019-04-30T20:55:20.706Z,4.80
2019-04-30T21:00:25.557Z,5.05
2019-04-30T21:05:29.584Z,5.20
2019-04-30T21:10:33.691Z,4.97
2019-04-30T21:15:45.239Z,4.97
2019-04-30T21:20:49.838Z,4.50
2019-04-30T21:25:53.730Z,4.62
2019-04-30T21:30:59.227Z,4.85
2019-04-30T21:36:18.418Z,4.62
2019-04-30T21:41:22.363Z,4.67
2019-04-30T21:46:26.263Z,4.90
2019-04-30T21:51:30.937Z,4.72
2019-04-30T21:56:34.928Z,5.72
2019-04-30T22:01:39.130Z,4.92
2019-04-30T22:06:43.320Z,5.00
2019-04-30T22:11:49.277Z,4.62
2019-04-30T22:16:53.112Z,4.78
2019-04-30T22:21:59.344Z,4.80
2019-04-30T22:27:03.234Z,4.75
2019-04-30T22:32:09.220Z,4.70
2019-04-30T22:37:12.749Z,4.42
2019-04-30T22:42:31.282Z,4.20
2019-04-30T22:47:35.324Z,5.08
2019-04-30T22:52:39.861Z,4.55
2019-04-30T22:57:44.806Z,4.42
2019-04-30T23:02:50.322Z,4.97
2019-04-30T23:07:54.529Z,4.80
2019-04-30T23:12:58.400Z,5.05
2019-04-30T23:18:02.271Z,5.00
2019-04-30T23:23:06.199Z,5.10
2019-04-30T23:28:10.080Z,5.03
2019-04-30T23:33:13.958Z,4.50
2019-04-30T23:38:17.850Z,5.12
2019-04-30T23:43:22.037Z,4.95
2019-04-30T23:48:25.899Z,4.87
2019-04-30T23:53:29.777Z,5.33
2019-04-30T23:58:33.663Z,8.63
